createdAt,value
2018-08-04T00:00:11.089Z,99.9
2018-08-04T00:01:18.301Z,99.9
2018-08-04T00:02:25.524Z,99.9
2018-08-04T00:03:32.741Z,99.9
2018-08-04T00:04:39.677Z,99.9
2018-08-04T00:05:46.615Z,99.9
2018-08-04T00:06:53.831Z,99.9
2018-08-04T00:08:01.048Z,99.9
2018-08-04T00:10:30.137Z,99.9
2018-08-04T00:11:37.355Z,99.9
2018-08-04T00:12:44.293Z,99.9
2018-08-04T00:13:51.507Z,99.9
2018-08-04T00:14:58.720Z,99.9
2018-08-04T00:16:05.934Z,99.9
2018-08-04T00:17:13.152Z,99.9
2018-08-04T00:18:20.365Z,99.9
2018-08-04T00:19:27.575Z,99.9
2018-08-04T00:20:34.794Z,99.9
2018-08-04T00:21:42.009Z,99.9
2018-08-04T00:22:49.225Z,99.9
2018-08-04T00:23:56.439Z,99.9
2018-08-04T00:25:03.657Z,99.9
2018-08-04T00:26:10.867Z,99.9
2018-08-04T00:27:17.810Z,99.9
2018-08-04T00:28:25.026Z,99.9
2018-08-04T00:29:32.242Z,99.9
2018-08-04T00:30:39.461Z,99.9
2018-08-04T00:31:46.669Z,99.9
2018-08-04T00:32:53.890Z,99.9
2018-08-04T00:34:01.106Z,99.9
2018-08-04T00:35:08.324Z,99.9
2018-08-04T00:36:15.538Z,99.9
2018-08-04T00:37:22.755Z,99.9
2018-08-04T00:38:29.966Z,99.9
2018-08-04T00:39:36.916Z,99.9
2018-08-04T00:40:44.127Z,99.9
2018-08-04T00:41:51.339Z,99.9
2018-08-04T00:42:58.554Z,99.9
2018-08-04T00:44:05.768Z,99.9
2018-08-04T00:45:12.983Z,99.9
2018-08-04T00:46:20.202Z,99.9
2018-08-04T00:47:27.422Z,99.9
2018-08-04T00:48:34.363Z,99.9
2018-08-04T00:49:41.579Z,99.9
2018-08-04T00:50:48.790Z,99.9
2018-08-04T00:51:56.007Z,99.9
2018-08-04T00:53:03.226Z,99.9
2018-08-04T00:54:10.434Z,99.9
2018-08-04T00:55:17.644Z,99.9
2018-08-04T00:56:24.859Z,99.9
2018-08-04T00:57:32.074Z,99.9
2018-08-04T00:58:39.286Z,99.9
2018-08-04T00:59:46.222Z,99.9
2018-08-04T01:00:53.433Z,99.9
2018-08-04T01:02:00.645Z,99.9
2018-08-04T01:03:07.604Z,99.9
2018-08-04T01:04:14.825Z,99.9
2018-08-04T01:05:22.041Z,99.9
2018-08-04T01:06:29.255Z,99.9
2018-08-04T01:07:36.470Z,99.9
2018-08-04T01:08:43.414Z,99.9
2018-08-04T01:09:50.632Z,99.9
2018-08-04T01:10:57.845Z,99.9
2018-08-04T01:12:04.790Z,99.9
2018-08-04T01:13:11.998Z,99.9
2018-08-04T01:14:19.219Z,99.9
2018-08-04T01:15:26.163Z,99.9
2018-08-04T01:16:33.378Z,99.9
2018-08-04T01:17:40.594Z,99.9
2018-08-04T01:18:47.808Z,99.9
2018-08-04T01:19:54.479Z,99.9
2018-08-04T01:21:01.695Z,99.9
2018-08-04T01:22:08.908Z,99.9
2018-08-04T01:23:16.133Z,99.9
2018-08-04T01:24:23.345Z,99.9
2018-08-04T01:25:30.557Z,99.9
2018-08-04T01:26:37.773Z,99.9
2018-08-04T01:27:44.985Z,99.9
2018-08-04T01:28:52.203Z,99.9
2018-08-04T01:29:59.414Z,99.9
2018-08-04T01:31:06.637Z,99.9
2018-08-04T01:32:13.852Z,99.9
2018-08-04T01:33:21.061Z,99.9
2018-08-04T01:34:28.279Z,99.9
2018-08-04T01:35:35.496Z,99.9
2018-08-04T01:36:42.710Z,99.9
2018-08-04T01:37:49.923Z,99.9
2018-08-04T01:38:56.863Z,99.9
2018-08-04T01:40:04.073Z,99.9
2018-08-04T01:41:11.300Z,99.9
2018-08-04T01:42:18.519Z,99.9
2018-08-04T01:43:25.725Z,99.9
2018-08-04T01:44:32.939Z,99.9
2018-08-04T01:45:40.152Z,99.9
2018-08-04T01:46:47.091Z,99.9
2018-08-04T01:47:54.532Z,99.9
2018-08-04T01:49:01.754Z,99.9
2018-08-04T01:50:08.962Z,99.9
2018-08-04T01:51:16.177Z,99.9
2018-08-04T01:52:23.390Z,99.9
2018-08-04T01:53:30.356Z,99.9
2018-08-04T01:54:37.031Z,99.9
2018-08-04T01:55:44.240Z,99.9
2018-08-04T01:56:51.467Z,99.9
2018-08-04T01:57:58.669Z,99.9
2018-08-04T01:59:05.899Z,99.9
2018-08-04T02:00:13.182Z,99.9
2018-08-04T02:01:20.425Z,99.9
2018-08-04T02:02:27.638Z,99.9
2018-08-04T02:03:34.850Z,99.9
2018-08-04T02:04:42.063Z,99.9
2018-08-04T02:05:49.279Z,99.9
2018-08-04T02:06:56.491Z,99.9
2018-08-04T02:08:03.706Z,99.9
2018-08-04T02:09:10.926Z,99.9
2018-08-04T02:10:17.867Z,99.9
2018-08-04T02:11:25.081Z,99.9
2018-08-04T02:12:32.030Z,99.9
2018-08-04T02:13:39.241Z,99.9
2018-08-04T02:14:46.186Z,99.9
2018-08-04T02:15:53.138Z,99.9
2018-08-04T02:17:00.081Z,99.9
2018-08-04T02:18:07.298Z,99.9
2018-08-04T02:19:14.513Z,99.9
2018-08-04T02:20:21.731Z,99.9
2018-08-04T02:21:28.949Z,99.9
2018-08-04T02:22:36.159Z,99.9
2018-08-04T02:23:43.374Z,99.9
2018-08-04T02:24:50.585Z,99.9
2018-08-04T02:25:57.802Z,99.9
2018-08-04T02:27:04.743Z,99.9
2018-08-04T02:28:11.955Z,99.9
2018-08-04T02:29:19.167Z,99.9
2018-08-04T02:30:26.385Z,99.9
2018-08-04T02:31:33.593Z,99.9
2018-08-04T02:32:40.806Z,99.9
2018-08-04T02:33:48.021Z,99.9
2018-08-04T02:34:55.236Z,99.9
2018-08-04T02:36:02.448Z,99.9
2018-08-04T02:37:09.663Z,99.9
2018-08-04T02:38:16.873Z,99.9
2018-08-04T02:39:24.093Z,99.9
2018-08-04T02:40:31.047Z,99.9
2018-08-04T02:41:38.258Z,99.9
2018-08-04T02:42:45.471Z,99.9
2018-08-04T02:43:52.685Z,99.9
2018-08-04T02:44:59.902Z,99.9
2018-08-04T02:46:07.117Z,99.9
2018-08-04T02:47:14.333Z,99.9
2018-08-04T02:48:21.542Z,99.9
2018-08-04T02:49:28.758Z,99.9
2018-08-04T02:50:35.983Z,99.9
2018-08-04T02:51:43.199Z,99.9
2018-08-04T02:52:50.414Z,99.9
2018-08-04T02:53:57.353Z,99.9
2018-08-04T02:55:04.561Z,99.9
2018-08-04T02:56:11.505Z,99.9
2018-08-04T02:57:18.449Z,99.9
2018-08-04T02:58:25.660Z,99.9
2018-08-04T02:59:32.873Z,99.9
2018-08-04T03:00:40.087Z,99.9
2018-08-04T03:02:54.215Z,99.9
2018-08-04T03:04:01.431Z,99.9
2018-08-04T03:05:08.644Z,99.9
2018-08-04T03:06:15.860Z,99.9
2018-08-04T03:07:23.086Z,99.9
2018-08-04T03:08:30.350Z,99.9
2018-08-04T03:09:37.806Z,99.9
2018-08-04T03:10:45.016Z,99.9
2018-08-04T03:11:52.443Z,99.9
2018-08-04T03:12:59.660Z,99.9
2018-08-04T03:14:06.885Z,99.9
2018-08-04T03:15:14.103Z,99.9
2018-08-04T03:16:21.047Z,99.9
2018-08-04T03:17:28.251Z,99.9
2018-08-04T03:18:35.459Z,99.9
2018-08-04T03:19:42.673Z,99.9
2018-08-04T03:20:49.887Z,99.9
2018-08-04T03:21:57.099Z,99.9
2018-08-04T03:23:04.312Z,99.9
2018-08-04T03:24:11.531Z,99.9
2018-08-04T03:25:18.468Z,99.9
2018-08-04T03:26:25.688Z,99.9
2018-08-04T03:27:32.627Z,99.9
2018-08-04T03:28:39.845Z,99.9
2018-08-04T03:29:47.060Z,99.9
2018-08-04T03:30:54.277Z,99.9
2018-08-04T03:32:01.496Z,99.9
2018-08-04T03:33:08.711Z,99.9
2018-08-04T03:34:15.923Z,99.9
2018-08-04T03:35:23.140Z,99.9
2018-08-04T03:36:30.084Z,99.9
2018-08-04T03:37:37.021Z,99.9
2018-08-04T03:38:44.244Z,99.9
2018-08-04T03:39:51.237Z,99.9
2018-08-04T03:40:58.438Z,99.9
2018-08-04T03:42:05.647Z,99.9
2018-08-04T03:43:12.877Z,99.9
2018-08-04T03:44:20.092Z,99.9
2018-08-04T03:45:27.303Z,99.9
2018-08-04T03:46:34.513Z,99.9
2018-08-04T03:47:41.455Z,99.9
2018-08-04T03:48:48.667Z,99.9
2018-08-04T03:49:55.878Z,99.9
2018-08-04T03:51:03.092Z,99.9
2018-08-04T03:52:10.304Z,99.9
2018-08-04T03:53:17.531Z,99.9
2018-08-04T03:54:24.739Z,99.9
2018-08-04T03:55:31.965Z,99.9
2018-08-04T03:56:39.180Z,99.9
2018-08-04T03:57:46.392Z,99.9
2018-08-04T03:58:53.330Z,99.9
2018-08-04T04:00:00.539Z,99.9
2018-08-04T04:01:07.514Z,99.9
2018-08-04T04:02:14.457Z,99.9
2018-08-04T04:03:21.671Z,99.9
2018-08-04T04:04:28.886Z,99.9
2018-08-04T04:05:36.103Z,99.9
2018-08-04T04:06:43.381Z,99.9
2018-08-04T04:07:50.966Z,99.9
2018-08-04T04:08:58.180Z,99.9
2018-08-04T04:10:05.391Z,99.9
2018-08-04T04:11:12.606Z,99.9
2018-08-04T04:12:19.817Z,99.9
2018-08-04T04:13:27.034Z,99.9
2018-08-04T04:14:34.248Z,99.9
2018-08-04T04:15:41.464Z,99.9
2018-08-04T04:16:48.713Z,99.9
2018-08-04T04:17:55.916Z,99.9
2018-08-04T04:19:03.136Z,99.9
2018-08-04T04:20:10.353Z,99.9
2018-08-04T04:21:17.562Z,99.9
2018-08-04T04:22:24.496Z,99.9
2018-08-04T04:23:31.722Z,99.9
2018-08-04T04:24:38.938Z,99.9
2018-08-04T04:25:46.159Z,99.9
2018-08-04T04:26:53.368Z,99.9
2018-08-04T04:28:00.586Z,99.9
2018-08-04T04:29:07.575Z,99.9
2018-08-04T04:30:14.775Z,99.9
2018-08-04T04:31:21.992Z,99.9
2018-08-04T04:32:29.204Z,99.9
2018-08-04T04:33:36.419Z,99.9
2018-08-04T04:34:43.631Z,99.9
2018-08-04T04:35:50.846Z,99.9
2018-08-04T04:36:58.062Z,99.9
2018-08-04T04:38:05.521Z,99.9
2018-08-04T04:39:12.735Z,99.9
2018-08-04T04:40:19.667Z,99.9
2018-08-04T04:41:26.887Z,99.9
2018-08-04T04:42:34.102Z,99.9
2018-08-04T04:43:41.321Z,99.9
2018-08-04T04:44:48.539Z,99.9
2018-08-04T04:45:55.758Z,99.9
2018-08-04T04:47:02.973Z,99.9
2018-08-04T04:48:10.187Z,99.9
2018-08-04T04:49:17.406Z,99.9
2018-08-04T04:50:24.616Z,99.9
2018-08-04T04:51:31.831Z,99.9
2018-08-04T04:52:38.771Z,99.9
2018-08-04T04:53:45.992Z,99.9
2018-08-04T04:54:53.201Z,99.9
2018-08-04T04:56:00.416Z,99.9
2018-08-04T04:57:07.638Z,99.9
2018-08-04T04:58:14.854Z,99.9
2018-08-04T04:59:22.068Z,99.9
2018-08-04T05:00:29.281Z,99.9
2018-08-04T05:01:36.495Z,99.9
2018-08-04T05:02:43.710Z,99.9
2018-08-04T05:03:50.923Z,99.9
2018-08-04T05:04:58.136Z,99.9
2018-08-04T05:06:05.354Z,99.9
2018-08-04T05:07:12.568Z,99.9
2018-08-04T05:08:19.504Z,99.9
2018-08-04T05:09:26.725Z,99.9
2018-08-04T05:10:33.943Z,99.9
2018-08-04T05:11:41.150Z,99.9
2018-08-04T05:12:48.370Z,99.9
2018-08-04T05:13:55.581Z,99.9
2018-08-04T05:15:02.798Z,99.9
2018-08-04T05:16:10.018Z,99.9
2018-08-04T05:17:17.238Z,99.9
2018-08-04T05:18:24.459Z,99.9
2018-08-04T05:19:31.674Z,99.9
2018-08-04T05:20:38.884Z,99.9
2018-08-04T05:21:46.097Z,99.9
2018-08-04T05:22:53.313Z,99.9
2018-08-04T05:24:00.258Z,99.9
2018-08-04T05:25:07.473Z,99.9
2018-08-04T05:26:14.689Z,99.9
2018-08-04T05:27:21.904Z,99.9
2018-08-04T05:28:29.109Z,99.9
2018-08-04T05:29:36.322Z,99.9
2018-08-04T05:30:43.534Z,99.9
2018-08-04T05:31:50.754Z,99.9
2018-08-04T05:32:58.003Z,99.9
2018-08-04T05:34:05.217Z,99.9
2018-08-04T05:35:12.437Z,99.9
2018-08-04T05:36:19.372Z,99.9
2018-08-04T05:37:26.595Z,99.9
2018-08-04T05:38:34.005Z,99.9
2018-08-04T05:39:41.205Z,99.9
2018-08-04T05:40:48.418Z,99.9
2018-08-04T05:41:55.629Z,99.9
2018-08-04T05:43:02.851Z,99.9
2018-08-04T05:44:10.073Z,99.9
2018-08-04T05:45:17.298Z,99.9
2018-08-04T05:46:24.508Z,99.9
2018-08-04T05:47:31.722Z,99.9
2018-08-04T05:48:38.935Z,99.9
2018-08-04T05:49:46.150Z,99.9
2018-08-04T05:50:53.364Z,99.9
2018-08-04T05:52:00.582Z,99.9
2018-08-04T05:53:07.797Z,99.9
2018-08-04T05:54:14.739Z,99.9
2018-08-04T05:55:21.955Z,99.9
2018-08-04T05:56:29.176Z,99.9
2018-08-04T05:57:36.391Z,99.9
2018-08-04T05:58:43.611Z,99.9
2018-08-04T05:59:50.824Z,99.9
2018-08-04T06:00:58.040Z,99.9
2018-08-04T06:02:05.253Z,99.9
2018-08-04T06:03:12.198Z,99.9
2018-08-04T06:04:19.467Z,99.9
2018-08-04T06:05:26.680Z,99.9
2018-08-04T06:06:33.623Z,99.9
2018-08-04T06:07:40.840Z,99.9
2018-08-04T06:08:48.051Z,99.9
2018-08-04T06:09:54.721Z,99.9
2018-08-04T06:11:01.935Z,99.9
2018-08-04T06:12:09.177Z,99.9
2018-08-04T06:13:16.394Z,99.9
2018-08-04T06:14:23.606Z,99.9
2018-08-04T06:15:30.869Z,99.9
2018-08-04T06:16:38.091Z,99.9
2018-08-04T06:17:45.309Z,99.9
2018-08-04T06:18:52.525Z,99.9
2018-08-04T06:19:59.466Z,99.9
2018-08-04T06:21:06.685Z,99.9
2018-08-04T06:22:13.914Z,99.9
2018-08-04T06:23:21.128Z,99.9
2018-08-04T06:24:28.342Z,99.9
2018-08-04T06:25:35.314Z,99.9
2018-08-04T06:26:42.542Z,99.9
2018-08-04T06:27:49.755Z,99.9
2018-08-04T06:28:56.971Z,99.9
2018-08-04T06:30:04.189Z,99.9
2018-08-04T06:31:11.441Z,99.9
2018-08-04T06:32:18.664Z,99.9
2018-08-04T06:33:25.877Z,99.9
2018-08-04T06:34:33.091Z,99.9
2018-08-04T06:35:40.312Z,96.9
2018-08-04T06:36:47.531Z,96.9
2018-08-04T06:37:54.746Z,96.5
2018-08-04T06:39:01.956Z,97.2
2018-08-04T06:40:09.171Z,90
2018-08-04T06:41:16.384Z,91.2
2018-08-04T06:42:23.326Z,92.8
2018-08-04T06:43:30.559Z,87.5
2018-08-04T06:44:37.777Z,94.1
2018-08-04T06:45:44.989Z,90.4
2018-08-04T06:46:52.208Z,84.4
2018-08-04T06:47:59.453Z,77.4
2018-08-04T06:49:06.672Z,77.8
2018-08-04T06:50:13.887Z,85.7
2018-08-04T06:51:20.839Z,85.1
2018-08-04T06:52:28.051Z,65.5
2018-08-04T06:53:35.262Z,67.3
2018-08-04T06:54:42.484Z,67
2018-08-04T06:55:49.705Z,64.3
2018-08-04T06:56:56.924Z,71.1
2018-08-04T06:58:04.146Z,61.1
2018-08-04T06:59:11.378Z,64.2
2018-08-04T07:00:18.596Z,66.3
2018-08-04T07:01:25.821Z,60.9
2018-08-04T07:02:33.039Z,66.9
2018-08-04T07:03:40.657Z,48.5
2018-08-04T07:04:47.598Z,50.7
2018-08-04T07:05:54.821Z,57.4
2018-08-04T07:07:02.045Z,59.3
2018-08-04T07:08:09.259Z,60
2018-08-04T07:09:16.478Z,48.3
2018-08-04T07:10:23.702Z,39
2018-08-04T07:11:30.918Z,42.7
2018-08-04T07:12:38.145Z,48.5
2018-08-04T07:13:45.424Z,48.7
2018-08-04T07:14:52.762Z,42.5
2018-08-04T07:16:00.041Z,42.9
2018-08-04T07:17:07.249Z,42.2
2018-08-04T07:18:14.467Z,38.9
2018-08-04T07:19:21.685Z,36
2018-08-04T07:20:28.909Z,30
2018-08-04T07:21:36.120Z,31.3
2018-08-04T07:22:43.342Z,39.4
2018-08-04T07:23:50.568Z,38.4
2018-08-04T07:24:57.795Z,38.5
2018-08-04T07:26:05.010Z,35.8
2018-08-04T07:27:11.957Z,38.9
2018-08-04T07:28:19.206Z,31.2
2018-08-04T07:29:26.429Z,31
2018-08-04T07:30:33.647Z,27.3
2018-08-04T07:31:40.865Z,29.9
2018-08-04T07:32:48.084Z,29.1
2018-08-04T07:33:55.035Z,27.6
2018-08-04T07:35:02.254Z,24.1
2018-08-04T07:36:09.471Z,25
2018-08-04T07:37:16.688Z,26.6
2018-08-04T07:38:23.906Z,26.4
2018-08-04T07:39:31.126Z,26.6
2018-08-04T07:40:38.340Z,23.1
2018-08-04T07:41:45.284Z,25.9
2018-08-04T07:42:52.504Z,22.1
2018-08-04T07:43:59.718Z,22.3
2018-08-04T07:45:06.660Z,20.5
2018-08-04T07:46:13.879Z,25.7
2018-08-04T07:47:21.098Z,25.4
2018-08-04T07:48:28.323Z,27.2
2018-08-04T07:49:35.544Z,25.4
2018-08-04T07:50:42.486Z,21.4
2018-08-04T07:51:49.427Z,18.9
2018-08-04T07:52:56.646Z,19.6
2018-08-04T07:54:03.864Z,25.9
2018-08-04T07:55:11.083Z,26.6
2018-08-04T07:56:18.302Z,21.1
2018-08-04T07:57:25.520Z,19.4
2018-08-04T07:58:32.742Z,17.9
2018-08-04T07:59:40.002Z,23.5
2018-08-04T08:00:47.224Z,21.6
2018-08-04T08:01:54.445Z,20.1
2018-08-04T08:03:01.664Z,21.4
2018-08-04T08:04:08.878Z,20
2018-08-04T08:05:16.094Z,17.7
2018-08-04T08:06:23.312Z,18.7
2018-08-04T08:07:30.529Z,23.7
2018-08-04T08:08:37.746Z,20.2
2018-08-04T08:09:44.962Z,18.1
2018-08-04T08:10:52.375Z,15.2
2018-08-04T08:12:00.112Z,16.4
2018-08-04T08:13:07.328Z,17.4
2018-08-04T08:14:14.552Z,13.7
2018-08-04T08:15:21.768Z,14.7
2018-08-04T08:16:28.986Z,12.6
2018-08-04T08:17:36.230Z,16.1
2018-08-04T08:18:43.453Z,15.1
2018-08-04T08:19:50.401Z,17.7
2018-08-04T08:20:57.618Z,16.2
2018-08-04T08:22:04.840Z,18.7
2018-08-04T08:23:12.134Z,19
2018-08-04T08:24:19.526Z,12.3
2018-08-04T08:25:26.474Z,14.6
2018-08-04T08:26:33.694Z,14.2
2018-08-04T08:27:40.922Z,12.8
2018-08-04T08:28:47.864Z,14.4
2018-08-04T08:29:55.083Z,15.7
2018-08-04T08:31:02.304Z,16.6
2018-08-04T08:32:09.522Z,11
2018-08-04T08:33:16.753Z,15.8
2018-08-04T08:34:23.713Z,16
2018-08-04T08:35:30.930Z,17.8
2018-08-04T08:36:38.154Z,15.3
2018-08-04T08:37:45.373Z,12.3
2018-08-04T08:38:52.590Z,12.7
2018-08-04T08:39:59.808Z,13.1
2018-08-04T08:41:07.023Z,10.7
2018-08-04T08:42:14.243Z,9.9
2018-08-04T08:43:21.453Z,13.3
2018-08-04T08:44:28.680Z,10.7
2018-08-04T08:45:35.939Z,15.5
2018-08-04T08:46:43.166Z,14.5
2018-08-04T08:47:50.397Z,12.5
2018-08-04T08:48:57.623Z,11.3
2018-08-04T08:50:04.848Z,10.5
2018-08-04T08:51:12.279Z,8.8
2018-08-04T08:52:19.498Z,5.3
2018-08-04T08:53:26.952Z,7.5
2018-08-04T08:54:35.208Z,6.4
2018-08-04T08:55:41.927Z,8.5
2018-08-04T08:56:48.876Z,10.5
2018-08-04T08:57:56.097Z,8.2
2018-08-04T08:59:03.318Z,9.4
2018-08-04T09:00:10.547Z,7
2018-08-04T09:01:17.552Z,7.3
2018-08-04T09:02:24.853Z,10.3
2018-08-04T09:03:32.075Z,6.6
2018-08-04T09:04:39.300Z,6.7
2018-08-04T09:05:46.536Z,6.1
2018-08-04T09:06:53.754Z,4.3
2018-08-04T09:08:00.979Z,6.4
2018-08-04T09:09:08.196Z,2.3
2018-08-04T09:10:15.621Z,2.4
2018-08-04T09:11:22.839Z,2.8
2018-08-04T09:12:30.073Z,5.2
2018-08-04T09:13:37.539Z,7.5
2018-08-04T09:14:44.767Z,5.1
2018-08-04T09:15:51.986Z,8.8
2018-08-04T09:16:59.209Z,5.9
2018-08-04T09:18:06.431Z,8
2018-08-04T09:19:13.656Z,5.1
2018-08-04T09:20:20.598Z,3.4
2018-08-04T09:21:27.552Z,9.9
2018-08-04T09:22:34.504Z,4.3
2018-08-04T09:23:41.723Z,2.5
2018-08-04T09:24:48.946Z,2.7
2018-08-04T09:25:56.167Z,1.2
2018-08-04T09:27:03.387Z,5.9
2018-08-04T09:28:10.609Z,6
2018-08-04T09:29:17.831Z,1.5
2018-08-04T09:30:25.055Z,2.2
2018-08-04T09:31:32.278Z,4.4
2018-08-04T09:32:39.501Z,1
2018-08-04T09:33:46.726Z,1
2018-08-04T09:34:53.949Z,1
2018-08-04T09:36:01.173Z,1
2018-08-04T09:37:08.393Z,1
2018-08-04T09:38:15.610Z,1
2018-08-04T09:39:22.833Z,1
2018-08-04T09:40:30.079Z,1
2018-08-04T09:41:37.288Z,1
2018-08-04T09:42:44.507Z,1
2018-08-04T09:43:51.784Z,1
2018-08-04T09:44:59.006Z,1
2018-08-04T09:46:06.227Z,1
2018-08-04T09:47:13.446Z,1
2018-08-04T09:48:20.664Z,1
2018-08-04T09:49:27.895Z,2.6
2018-08-04T09:50:35.119Z,1
2018-08-04T09:51:42.347Z,1
2018-08-04T09:52:49.571Z,1
2018-08-04T09:53:56.801Z,1
2018-08-04T09:55:04.021Z,1
2018-08-04T09:56:11.248Z,1
2018-08-04T09:57:18.471Z,1
2018-08-04T09:58:25.719Z,1
2018-08-04T09:59:32.956Z,1
2018-08-04T10:00:39.644Z,1
2018-08-04T10:01:46.863Z,1
2018-08-04T10:02:54.085Z,1
2018-08-04T10:04:01.306Z,1
2018-08-04T10:05:08.306Z,1
2018-08-04T10:06:15.635Z,1
2018-08-04T10:07:22.860Z,1
2018-08-04T10:08:29.819Z,1
2018-08-04T10:09:36.769Z,1
2018-08-04T10:10:43.995Z,1
2018-08-04T10:11:51.220Z,1
2018-08-04T10:12:58.446Z,1
2018-08-04T10:14:05.421Z,1
2018-08-04T10:15:12.391Z,1
2018-08-04T10:16:19.353Z,1
2018-08-04T10:17:26.571Z,1
2018-08-04T10:18:33.795Z,1
2018-08-04T10:19:41.014Z,1
2018-08-04T10:20:48.240Z,1
2018-08-04T10:21:55.467Z,1
2018-08-04T10:23:02.698Z,1
2018-08-04T10:24:09.651Z,1
2018-08-04T10:25:16.874Z,1
2018-08-04T10:26:24.099Z,1
2018-08-04T10:27:31.331Z,1
2018-08-04T10:28:38.568Z,1
2018-08-04T10:29:45.790Z,1
2018-08-04T10:30:53.013Z,1
2018-08-04T10:32:00.298Z,1
2018-08-04T10:33:07.990Z,1
2018-08-04T10:34:14.948Z,1
2018-08-04T10:35:22.181Z,1
2018-08-04T10:36:29.417Z,1
2018-08-04T10:37:36.375Z,1
2018-08-04T10:38:43.611Z,1
2018-08-04T10:39:50.602Z,1
2018-08-04T10:40:57.825Z,1
2018-08-04T10:42:04.784Z,1
2018-08-04T10:43:12.010Z,1
2018-08-04T10:44:19.235Z,1
2018-08-04T10:45:26.460Z,1
2018-08-04T10:46:33.689Z,1
2018-08-04T10:47:40.920Z,1
2018-08-04T10:48:48.149Z,1
2018-08-04T10:49:55.368Z,1
2018-08-04T10:51:02.599Z,1
2018-08-04T10:52:09.541Z,1
2018-08-04T10:53:16.764Z,1
2018-08-04T10:54:23.992Z,1
2018-08-04T10:55:31.219Z,1
2018-08-04T10:56:38.455Z,1
2018-08-04T10:57:45.693Z,1
2018-08-04T10:58:52.919Z,1
2018-08-04T11:00:00.142Z,1
2018-08-04T11:01:07.368Z,1
2018-08-04T11:02:14.601Z,1
2018-08-04T11:03:21.831Z,1
2018-08-04T11:04:29.060Z,1
2018-08-04T11:05:36.285Z,1
2018-08-04T11:06:43.506Z,1
2018-08-04T11:07:50.728Z,1
2018-08-04T11:08:57.973Z,1
2018-08-04T11:10:05.178Z,1
2018-08-04T11:11:12.408Z,1
2018-08-04T11:12:19.636Z,1
2018-08-04T11:13:26.863Z,1
2018-08-04T11:14:34.088Z,1
2018-08-04T11:15:41.322Z,1
2018-08-04T11:16:48.561Z,1
2018-08-04T11:17:55.816Z,1
2018-08-04T11:19:03.041Z,1
2018-08-04T11:20:10.266Z,1
2018-08-04T11:21:17.487Z,1
2018-08-04T11:22:24.719Z,1
2018-08-04T11:23:31.945Z,1
2018-08-04T11:24:39.172Z,1
2018-08-04T11:25:46.800Z,1
2018-08-04T11:26:54.023Z,1
2018-08-04T11:28:01.255Z,1
2018-08-04T11:29:08.475Z,1
2018-08-04T11:30:15.700Z,1
2018-08-04T11:31:22.927Z,1
2018-08-04T11:32:30.152Z,1
2018-08-04T11:33:37.377Z,1
2018-08-04T11:34:44.600Z,1
2018-08-04T11:35:51.827Z,1
2018-08-04T11:36:59.049Z,1
2018-08-04T11:38:06.279Z,1
2018-08-04T11:39:13.506Z,1
2018-08-04T11:40:20.730Z,1
2018-08-04T11:41:27.965Z,1
2018-08-04T11:42:35.192Z,1
2018-08-04T11:43:42.421Z,1
2018-08-04T11:44:49.645Z,1
2018-08-04T11:45:56.870Z,1
2018-08-04T11:47:04.095Z,1
2018-08-04T11:48:11.336Z,1
2018-08-04T11:49:18.548Z,1
2018-08-04T11:50:25.773Z,1
2018-08-04T11:51:32.753Z,1
2018-08-04T11:52:40.231Z,1
2018-08-04T11:53:47.497Z,1
2018-08-04T11:54:54.456Z,1
2018-08-04T11:56:01.671Z,1
2018-08-04T11:57:08.909Z,1
2018-08-04T11:58:16.217Z,1
2018-08-04T11:59:23.500Z,1
2018-08-04T12:00:30.739Z,1
2018-08-04T12:01:37.966Z,1
2018-08-04T12:02:45.192Z,1
2018-08-04T12:03:52.412Z,1
2018-08-04T12:04:59.371Z,1
2018-08-04T12:06:06.600Z,1
2018-08-04T12:07:13.837Z,1
2018-08-04T12:08:21.071Z,1
2018-08-04T12:09:28.347Z,1
2018-08-04T12:10:35.347Z,1
2018-08-04T12:11:42.312Z,1
2018-08-04T12:12:49.553Z,1
2018-08-04T12:13:56.778Z,1
2018-08-04T12:15:04.020Z,1
2018-08-04T12:16:11.245Z,1
2018-08-04T12:17:18.478Z,1
2018-08-04T12:18:25.431Z,1
2018-08-04T12:19:32.657Z,1
2018-08-04T12:20:39.884Z,1
2018-08-04T12:21:47.114Z,1
2018-08-04T12:22:54.068Z,1
2018-08-04T12:24:01.297Z,1
2018-08-04T12:25:08.269Z,1
2018-08-04T12:26:15.493Z,1
2018-08-04T12:27:22.718Z,1
2018-08-04T12:28:29.945Z,1
2018-08-04T12:29:37.181Z,1
2018-08-04T12:30:44.404Z,1
2018-08-04T12:31:51.631Z,1
2018-08-04T12:32:58.851Z,1
2018-08-04T12:34:06.087Z,1
2018-08-04T12:35:13.305Z,1
2018-08-04T12:36:20.525Z,1
2018-08-04T12:37:27.255Z,1
2018-08-04T12:38:34.240Z,4
2018-08-04T12:39:41.464Z,9.7
2018-08-04T12:40:48.442Z,14.5
2018-08-04T12:41:55.709Z,16
2018-08-04T12:43:02.942Z,22
2018-08-04T12:44:10.163Z,26.3
2018-08-04T12:45:16.849Z,30
2018-08-04T12:46:24.072Z,30
2018-08-04T12:47:31.296Z,38.7
2018-08-04T12:48:38.534Z,37.8
2018-08-04T12:49:45.482Z,43.4
2018-08-04T12:50:52.701Z,38.8
2018-08-04T12:51:59.926Z,48
2018-08-04T12:53:06.874Z,49.8
2018-08-04T12:54:14.123Z,57.4
2018-08-04T12:55:21.434Z,70.7
2018-08-04T12:56:28.663Z,84.6
2018-08-04T12:57:35.882Z,76.5
2018-08-04T12:58:42.832Z,94.9
2018-08-04T12:59:50.062Z,93.6
2018-08-04T13:00:57.285Z,96.7
2018-08-04T13:02:04.578Z,97.9
2018-08-04T13:03:11.805Z,99.9
2018-08-04T13:04:19.022Z,99.9
2018-08-04T13:06:47.837Z,99.9
2018-08-04T13:07:55.059Z,99.9
2018-08-04T13:09:02.279Z,99.9
2018-08-04T13:10:09.498Z,99.9
2018-08-04T13:11:16.724Z,99.9
2018-08-04T13:12:23.953Z,99.9
2018-08-04T13:13:30.910Z,99.9
2018-08-04T13:14:38.132Z,99.9
2018-08-04T13:15:45.076Z,99.9
2018-08-04T13:16:52.299Z,99.9
2018-08-04T13:17:59.520Z,99.9
2018-08-04T13:19:06.746Z,99.9
2018-08-04T13:20:13.983Z,99.9
2018-08-04T13:21:21.237Z,99.9
2018-08-04T13:22:28.458Z,99.9
2018-08-04T13:23:35.681Z,99.9
2018-08-04T13:24:42.907Z,99.9
2018-08-04T13:25:50.121Z,99.9
2018-08-04T13:26:57.347Z,99.9
2018-08-04T13:28:04.572Z,99.9
2018-08-04T13:29:11.515Z,99.9
2018-08-04T13:30:18.769Z,99.9
2018-08-04T13:31:26.010Z,99.9
2018-08-04T13:32:33.231Z,99.9
2018-08-04T13:33:40.456Z,99.9
2018-08-04T13:34:47.678Z,99.9
2018-08-04T13:35:54.897Z,99.9
2018-08-04T13:37:02.186Z,99.9
2018-08-04T13:38:09.655Z,99.9
2018-08-04T13:39:16.878Z,99.9
2018-08-04T13:40:24.109Z,94.8
2018-08-04T13:41:31.342Z,99.9
2018-08-04T13:42:38.621Z,99.9
2018-08-04T13:43:45.846Z,99.9
2018-08-04T13:44:53.072Z,99.9
2018-08-04T13:46:00.289Z,99.9
2018-08-04T13:47:07.508Z,99.9
2018-08-04T13:48:14.730Z,99.9
2018-08-04T13:49:21.948Z,99.9
2018-08-04T13:50:29.172Z,99.9
2018-08-04T13:51:36.398Z,99.9
2018-08-04T13:52:43.351Z,99.9
2018-08-04T13:53:50.576Z,99.9
2018-08-04T13:54:57.793Z,99.9
2018-08-04T13:56:05.021Z,99.9
2018-08-04T13:57:11.922Z,99.9
2018-08-04T13:58:19.143Z,99.9
2018-08-04T13:59:26.369Z,99.9
2018-08-04T14:00:33.591Z,99.9
2018-08-04T14:01:40.828Z,99.9
2018-08-04T14:02:47.777Z,99.9
2018-08-04T14:03:54.996Z,99.9
2018-08-04T14:05:02.219Z,99.9
2018-08-04T14:06:09.440Z,99.9
2018-08-04T14:07:16.661Z,99.9
2018-08-04T14:08:23.877Z,99.9
2018-08-04T14:09:31.104Z,99.9
2018-08-04T14:10:38.340Z,99.9
2018-08-04T14:11:45.571Z,99.9
2018-08-04T14:12:52.569Z,99.9
2018-08-04T14:13:59.784Z,99.9
2018-08-04T14:15:07.012Z,99.9
2018-08-04T14:16:14.235Z,99.9
2018-08-04T14:17:21.495Z,99.9
2018-08-04T14:18:28.906Z,99.9
2018-08-04T14:19:36.318Z,99.9
2018-08-04T14:20:43.545Z,99.9
2018-08-04T14:21:50.809Z,99.9
2018-08-04T14:22:58.316Z,99.9
2018-08-04T14:24:05.727Z,99.9
2018-08-04T14:25:12.953Z,99.9
2018-08-04T14:26:19.905Z,99.9
2018-08-04T14:27:27.127Z,99.9
2018-08-04T14:28:34.119Z,99.9
2018-08-04T14:29:41.403Z,99.9
2018-08-04T14:30:48.619Z,99.9
2018-08-04T14:31:55.842Z,99.9
2018-08-04T14:33:03.064Z,99.9
2018-08-04T14:34:10.292Z,99.9
2018-08-04T14:35:17.254Z,99.9
2018-08-04T14:36:24.486Z,99.9
2018-08-04T14:37:31.713Z,99.9
2018-08-04T14:38:38.934Z,99.9
2018-08-04T14:39:46.156Z,99.9
2018-08-04T14:40:53.377Z,99.9
2018-08-04T14:42:00.622Z,99.9
2018-08-04T14:43:07.855Z,99.9
2018-08-04T14:44:15.112Z,99.9
2018-08-04T14:45:22.331Z,99.9
2018-08-04T14:46:29.280Z,99.9
2018-08-04T14:47:36.508Z,99.9
2018-08-04T14:48:43.727Z,99.9
2018-08-04T14:49:50.954Z,99.9
2018-08-04T14:50:58.177Z,99.9
2018-08-04T14:52:05.400Z,99.9
2018-08-04T14:53:12.626Z,99.9
2018-08-04T14:54:19.856Z,99.9
2018-08-04T14:55:27.081Z,99.9
2018-08-04T14:56:34.031Z,99.9
2018-08-04T14:57:41.252Z,93.1
2018-08-04T14:58:48.477Z,85.2
2018-08-04T14:59:55.692Z,71.7
2018-08-04T15:01:02.918Z,55.8
2018-08-04T15:02:10.137Z,54.1
2018-08-04T15:03:17.361Z,38.9
2018-08-04T15:04:24.656Z,41.2
2018-08-04T15:05:31.681Z,52.8
2018-08-04T15:06:38.905Z,59.4
2018-08-04T15:07:46.124Z,62.5
2018-08-04T15:08:53.347Z,76.6
2018-08-04T15:10:00.630Z,76.2
2018-08-04T15:11:07.968Z,60.8
2018-08-04T15:12:14.922Z,77.1
2018-08-04T15:13:22.141Z,65
2018-08-04T15:14:29.365Z,59.5
2018-08-04T15:15:36.597Z,32.2
2018-08-04T15:16:43.620Z,27.8
2018-08-04T15:17:50.574Z,45.6
2018-08-04T15:18:57.790Z,39.9